sensor_id;sensor_type;location;lat;lon;timestamp;temperature;humidity
64501;DHT22;50874;24.150;-110.320;2023-08-12T00:00:51;35.60;99.90
64501;DHT22;50874;24.150;-110.320;2023-08-12T00:03:18;35.50;99.90
64501;DHT22;50874;24.150;-110.320;2023-08-12T00:05:45;35.60;99.90
64501;DHT22;50874;24.150;-110.320;2023-08-12T00:08:12;35.40;99.90
64501;DHT22;50874;24.150;-110.320;2023-08-12T00:10:38;35.40;99.90
64501;DHT22;50874;24.150;-110.320;2023-08-12T00:13:04;35.50;99.90
64501;DHT22;50874;24.150;-110.320;2023-08-12T00:15:31;35.30;99.90
64501;DHT22;50874;24.150;-110.320;2023-08-12T00:17:57;35.20;99.90
64501;DHT22;50874;24.150;-110.320;2023-08-12T00:20:24;35.10;99.90
64501;DHT22;50874;24.150;-110.320;2023-08-12T00:22:50;35.20;99.90
64501;DHT22;50874;24.150;-110.320;2023-08-12T00:25:17;35.20;99.90
64501;DHT22;50874;24.150;-110.320;2023-08-12T00:27:43;35.20;99.90
64501;DHT22;50874;24.150;-110.320;2023-08-12T00:30:10;35.20;99.90
64501;DHT22;50874;24.150;-110.320;2023-08-12T00:32:36;35.00;99.90
64501;DHT22;50874;24.150;-110.320;2023-08-12T00:35:03;34.90;99.90
64501;DHT22;50874;24.150;-110.320;2023-08-12T00:37:30;34.80;99.90
64501;DHT22;50874;24.150;-110.320;2023-08-12T00:39:56;34.80;99.90
64501;DHT22;50874;24.150;-110.320;2023-08-12T00:42:23;34.80;99.90
64501;DHT22;50874;24.150;-110.320;2023-08-12T00:44:49;34.80;99.90
64501;DHT22;50874;24.150;-110.320;2023-08-12T00:47:16;34.90;99.90
64501;DHT22;50874;24.150;-110.320;2023-08-12T00:49:43;35.00;99.90
64501;DHT22;50874;24.150;-110.320;2023-08-12T00:52:13;35.00;99.90
64501;DHT22;50874;24.150;-110.320;2023-08-12T00:54:40;35.10;99.90
64501;DHT22;50874;24.150;-110.320;2023-08-12T00:57:06;35.10;99.90
64501;DHT22;50874;24.150;-110.320;2023-08-12T00:59:35;35.10;99.90
64501;DHT22;50874;24.150;-110.320;2023-08-12T01:02:03;35.00;99.90
64501;DHT22;50874;24.150;-110.320;2023-08-12T01:04:31;34.90;99.90
64501;DHT22;50874;24.150;-110.320;2023-08-12T01:06:57;34.80;99.90
64501;DHT22;50874;24.150;-110.320;2023-08-12T01:09:23;34.80;99.90
64501;DHT22;50874;24.150;-110.320;2023-08-12T01:14:41;34.70;99.90
64501;DHT22;50874;24.150;-110.320;2023-08-12T01:17:12;34.60;99.90
64501;DHT22;50874;24.150;-110.320;2023-08-12T01:19:40;34.60;99.90
64501;DHT22;50874;24.150;-110.320;2023-08-12T01:22:11;34.50;99.90
64501;DHT22;50874;24.150;-110.320;2023-08-12T01:24:42;34.50;99.90
64501;DHT22;50874;24.150;-110.320;2023-08-12T01:27:11;34.30;99.90
64501;DHT22;50874;24.150;-110.320;2023-08-12T01:29:44;34.30;99.90
64501;DHT22;50874;24.150;-110.320;2023-08-12T01:32:32;34.30;99.90
64501;DHT22;50874;24.150;-110.320;2023-08-12T01:35:20;34.40;99.90
64501;DHT22;50874;24.150;-110.320;2023-08-12T01:37:50;34.40;99.90
64501;DHT22;50874;24.150;-110.320;2023-08-12T01:40:19;34.30;99.90
64501;DHT22;50874;24.150;-110.320;2023-08-12T01:42:46;34.30;99.90
64501;DHT22;50874;24.150;-110.320;2023-08-12T01:45:14;34.30;99.90
64501;DHT22;50874;24.150;-110.320;2023-08-12T01:47:43;34.30;99.90
64501;DHT22;50874;24.150;-110.320;2023-08-12T01:50:10;34.30;99.90
64501;DHT22;50874;24.150;-110.320;2023-08-12T01:52:37;34.30;99.90
64501;DHT22;50874;24.150;-110.320;2023-08-12T01:55:03;34.30;99.90
64501;DHT22;50874;24.150;-110.320;2023-08-12T01:57:30;34.30;99.90
64501;DHT22;50874;24.150;-110.320;2023-08-12T01:59:56;34.20;99.90
64501;DHT22;50874;24.150;-110.320;2023-08-12T02:02:23;34.10;99.90
64501;DHT22;50874;24.150;-110.320;2023-08-12T02:04:49;34.10;99.90
64501;DHT22;50874;24.150;-110.320;2023-08-12T02:07:16;34.10;99.90
64501;DHT22;50874;24.150;-110.320;2023-08-12T02:09:42;34.00;99.90
64501;DHT22;50874;24.150;-110.320;2023-08-12T02:12:08;33.90;99.90
64501;DHT22;50874;24.150;-110.320;2023-08-12T02:14:35;33.90;99.90
64501;DHT22;50874;24.150;-110.320;2023-08-12T02:17:03;33.80;99.90
64501;DHT22;50874;24.150;-110.320;2023-08-12T02:19:32;33.70;99.90
64501;DHT22;50874;24.150;-110.320;2023-08-12T02:22:00;33.60;99.90
64501;DHT22;50874;24.150;-110.320;2023-08-12T02:24:27;33.50;99.90
64501;DHT22;50874;24.150;-110.320;2023-08-12T02:26:54;33.40;99.90
64501;DHT22;50874;24.150;-110.320;2023-08-12T02:29:20;33.40;99.90
64501;DHT22;50874;24.150;-110.320;2023-08-12T02:31:46;33.30;99.90
64501;DHT22;50874;24.150;-110.320;2023-08-12T02:34:13;33.40;99.90
64501;DHT22;50874;24.150;-110.320;2023-08-12T02:36:39;33.40;99.90
64501;DHT22;50874;24.150;-110.320;2023-08-12T02:39:06;33.40;99.90
64501;DHT22;50874;24.150;-110.320;2023-08-12T02:41:32;33.30;99.90
64501;DHT22;50874;24.150;-110.320;2023-08-12T02:43:59;33.10;99.90
64501;DHT22;50874;24.150;-110.320;2023-08-12T02:46:25;32.90;99.90
64501;DHT22;50874;24.150;-110.320;2023-08-12T02:48:51;32.80;99.90
64501;DHT22;50874;24.150;-110.320;2023-08-12T02:51:18;32.60;99.90
64501;DHT22;50874;24.150;-110.320;2023-08-12T02:53:44;32.60;99.90
64501;DHT22;50874;24.150;-110.320;2023-08-12T02:56:11;32.60;99.90
64501;DHT22;50874;24.150;-110.320;2023-08-12T02:58:37;32.60;99.90
64501;DHT22;50874;24.150;-110.320;2023-08-12T03:01:04;32.60;99.90
64501;DHT22;50874;24.150;-110.320;2023-08-12T03:03:30;32.50;99.90
64501;DHT22;50874;24.150;-110.320;2023-08-12T03:05:56;32.40;99.90
64501;DHT22;50874;24.150;-110.320;2023-08-12T03:08:23;32.40;99.90
64501;DHT22;50874;24.150;-110.320;2023-08-12T03:10:49;32.30;99.90
64501;DHT22;50874;24.150;-110.320;2023-08-12T03:13:16;32.30;99.90
64501;DHT22;50874;24.150;-110.320;2023-08-12T03:15:42;32.30;99.90
64501;DHT22;50874;24.150;-110.320;2023-08-12T03:18:09;32.20;99.90
64501;DHT22;50874;24.150;-110.320;2023-08-12T03:20:36;32.20;99.90
64501;DHT22;50874;24.150;-110.320;2023-08-12T03:23:03;32.10;99.90
64501;DHT22;50874;24.150;-110.320;2023-08-12T03:25:29;32.10;99.90
64501;DHT22;50874;24.150;-110.320;2023-08-12T03:27:56;32.10;99.90
64501;DHT22;50874;24.150;-110.320;2023-08-12T03:30:22;32.10;99.90
64501;DHT22;50874;24.150;-110.320;2023-08-12T03:32:49;32.00;99.90
64501;DHT22;50874;24.150;-110.320;2023-08-12T03:35:15;32.10;99.90
64501;DHT22;50874;24.150;-110.320;2023-08-12T03:37:41;32.00;99.90
64501;DHT22;50874;24.150;-110.320;2023-08-12T03:40:08;31.90;99.90
64501;DHT22;50874;24.150;-110.320;2023-08-12T03:42:35;31.70;99.90
64501;DHT22;50874;24.150;-110.320;2023-08-12T03:45:01;31.70;99.90
64501;DHT22;50874;24.150;-110.320;2023-08-12T03:47:28;31.60;99.90
64501;DHT22;50874;24.150;-110.320;2023-08-12T03:49:54;31.50;99.90
64501;DHT22;50874;24.150;-110.320;2023-08-12T03:52:21;31.50;99.90
64501;DHT22;50874;24.150;-110.320;2023-08-12T03:54:48;31.50;99.90
64501;DHT22;50874;24.150;-110.320;2023-08-12T03:57:14;31.40;99.90
64501;DHT22;50874;24.150;-110.320;2023-08-12T03:59:41;31.40;99.90
64501;DHT22;50874;24.150;-110.320;2023-08-12T04:02:07;31.30;99.90
64501;DHT22;50874;24.150;-110.320;2023-08-12T04:04:34;31.20;99.90
64501;DHT22;50874;24.150;-110.320;2023-08-12T04:07:00;31.20;99.90
64501;DHT22;50874;24.150;-110.320;2023-08-12T04:09:26;31.20;99.90
64501;DHT22;50874;24.150;-110.320;2023-08-12T04:11:53;31.10;99.90
64501;DHT22;50874;24.150;-110.320;2023-08-12T04:14:19;31.10;99.90
64501;DHT22;50874;24.150;-110.320;2023-08-12T04:16:46;31.10;99.90
64501;DHT22;50874;24.150;-110.320;2023-08-12T04:19:12;31.00;99.90
64501;DHT22;50874;24.150;-110.320;2023-08-12T04:21:39;31.00;99.90
64501;DHT22;50874;24.150;-110.320;2023-08-12T04:24:06;31.00;99.90
64501;DHT22;50874;24.150;-110.320;2023-08-12T04:26:32;30.90;99.90
64501;DHT22;50874;24.150;-110.320;2023-08-12T04:28:59;30.80;99.90
64501;DHT22;50874;24.150;-110.320;2023-08-12T04:31:25;30.80;99.90
64501;DHT22;50874;24.150;-110.320;2023-08-12T04:33:51;30.80;99.90
64501;DHT22;50874;24.150;-110.320;2023-08-12T04:36:18;30.70;99.90
64501;DHT22;50874;24.150;-110.320;2023-08-12T04:38:45;30.70;99.90
64501;DHT22;50874;24.150;-110.320;2023-08-12T04:41:12;30.70;99.90
64501;DHT22;50874;24.150;-110.320;2023-08-12T04:43:38;30.70;99.90
64501;DHT22;50874;24.150;-110.320;2023-08-12T04:46:05;30.50;99.90
64501;DHT22;50874;24.150;-110.320;2023-08-12T04:48:31;30.50;99.90
64501;DHT22;50874;24.150;-110.320;2023-08-12T04:50:58;30.50;99.90
64501;DHT22;50874;24.150;-110.320;2023-08-12T04:53:29;30.50;99.90
64501;DHT22;50874;24.150;-110.320;2023-08-12T04:55:56;30.40;99.90
64501;DHT22;50874;24.150;-110.320;2023-08-12T04:58:22;30.40;99.90
64501;DHT22;50874;24.150;-110.320;2023-08-12T05:00:50;30.40;99.90
64501;DHT22;50874;24.150;-110.320;2023-08-12T05:03:18;30.40;99.90
64501;DHT22;50874;24.150;-110.320;2023-08-12T05:05:51;30.30;99.90
64501;DHT22;50874;24.150;-110.320;2023-08-12T05:08:18;30.30;99.90
64501;DHT22;50874;24.150;-110.320;2023-08-12T05:10:46;30.30;99.90
64501;DHT22;50874;24.150;-110.320;2023-08-12T05:13:13;30.20;99.90
64501;DHT22;50874;24.150;-110.320;2023-08-12T05:15:40;30.30;99.90
64501;DHT22;50874;24.150;-110.320;2023-08-12T05:18:06;30.30;99.90
64501;DHT22;50874;24.150;-110.320;2023-08-12T05:20:33;30.30;99.90
64501;DHT22;50874;24.150;-110.320;2023-08-12T05:22:59;30.20;99.90
64501;DHT22;50874;24.150;-110.320;2023-08-12T05:25:26;30.10;99.90
64501;DHT22;50874;24.150;-110.320;2023-08-12T05:27:52;30.10;99.90
64501;DHT22;50874;24.150;-110.320;2023-08-12T05:30:19;30.10;99.90
64501;DHT22;50874;24.150;-110.320;2023-08-12T05:32:45;30.00;99.90
64501;DHT22;50874;24.150;-110.320;2023-08-12T05:35:11;29.90;99.90
64501;DHT22;50874;24.150;-110.320;2023-08-12T05:37:38;29.90;99.90
64501;DHT22;50874;24.150;-110.320;2023-08-12T05:40:05;29.90;99.90
64501;DHT22;50874;24.150;-110.320;2023-08-12T05:42:35;30.00;99.90
64501;DHT22;50874;24.150;-110.320;2023-08-12T05:45:01;29.90;99.90
64501;DHT22;50874;24.150;-110.320;2023-08-12T05:47:28;29.90;99.90
64501;DHT22;50874;24.150;-110.320;2023-08-12T05:49:55;29.90;99.90
64501;DHT22;50874;24.150;-110.320;2023-08-12T05:52:21;29.80;99.90
64501;DHT22;50874;24.150;-110.320;2023-08-12T05:54:47;29.80;99.90
64501;DHT22;50874;24.150;-110.320;2023-08-12T05:57:14;29.80;99.90
64501;DHT22;50874;24.150;-110.320;2023-08-12T05:59:40;29.80;99.90
64501;DHT22;50874;24.150;-110.320;2023-08-12T06:02:07;29.80;99.90
64501;DHT22;50874;24.150;-110.320;2023-08-12T06:04:33;29.60;99.90
64501;DHT22;50874;24.150;-110.320;2023-08-12T06:07:00;29.60;99.90
64501;DHT22;50874;24.150;-110.320;2023-08-12T06:09:26;29.60;99.90
64501;DHT22;50874;24.150;-110.320;2023-08-12T06:11:53;29.50;99.90
64501;DHT22;50874;24.150;-110.320;2023-08-12T06:14:19;29.40;99.90
64501;DHT22;50874;24.150;-110.320;2023-08-12T06:16:45;29.40;99.90
64501;DHT22;50874;24.150;-110.320;2023-08-12T06:19:12;29.50;99.90
64501;DHT22;50874;24.150;-110.320;2023-08-12T06:21:38;29.40;99.90
64501;DHT22;50874;24.150;-110.320;2023-08-12T06:24:05;29.30;99.90
64501;DHT22;50874;24.150;-110.320;2023-08-12T06:26:32;29.30;99.90
64501;DHT22;50874;24.150;-110.320;2023-08-12T06:28:58;29.30;99.90
64501;DHT22;50874;24.150;-110.320;2023-08-12T06:31:25;29.30;99.90
64501;DHT22;50874;24.150;-110.320;2023-08-12T06:33:51;29.20;99.90
64501;DHT22;50874;24.150;-110.320;2023-08-12T06:36:18;29.20;99.90
64501;DHT22;50874;24.150;-110.320;2023-08-12T06:38:44;29.30;99.90
64501;DHT22;50874;24.150;-110.320;2023-08-12T06:41:11;29.30;99.90
64501;DHT22;50874;24.150;-110.320;2023-08-12T06:43:37;29.20;99.90
64501;DHT22;50874;24.150;-110.320;2023-08-12T06:46:04;29.20;99.90
64501;DHT22;50874;24.150;-110.320;2023-08-12T06:48:30;29.20;99.90
64501;DHT22;50874;24.150;-110.320;2023-08-12T06:50:57;29.20;99.90
64501;DHT22;50874;24.150;-110.320;2023-08-12T06:53:26;29.20;99.90
64501;DHT22;50874;24.150;-110.320;2023-08-12T06:55:52;29.20;99.90
64501;DHT22;50874;24.150;-110.320;2023-08-12T06:58:19;29.20;99.90
64501;DHT22;50874;24.150;-110.320;2023-08-12T07:00:45;29.20;99.90
64501;DHT22;50874;24.150;-110.320;2023-08-12T07:03:12;29.10;99.90
64501;DHT22;50874;24.150;-110.320;2023-08-12T07:05:38;29.10;99.90
64501;DHT22;50874;24.150;-110.320;2023-08-12T07:08:05;29.10;99.90
64501;DHT22;50874;24.150;-110.320;2023-08-12T07:10:31;29.00;99.90
64501;DHT22;50874;24.150;-110.320;2023-08-12T07:12:58;29.00;99.90
64501;DHT22;50874;24.150;-110.320;2023-08-12T07:15:24;29.00;99.90
64501;DHT22;50874;24.150;-110.320;2023-08-12T07:17:50;29.00;99.90
64501;DHT22;50874;24.150;-110.320;2023-08-12T07:20:17;29.00;99.90
64501;DHT22;50874;24.150;-110.320;2023-08-12T07:22:43;28.90;99.90
64501;DHT22;50874;24.150;-110.320;2023-08-12T07:25:10;28.90;99.90
64501;DHT22;50874;24.150;-110.320;2023-08-12T07:27:36;28.90;99.90
64501;DHT22;50874;24.150;-110.320;2023-08-12T07:30:03;28.90;99.90
64501;DHT22;50874;24.150;-110.320;2023-08-12T07:32:30;28.80;99.90
64501;DHT22;50874;24.150;-110.320;2023-08-12T07:34:56;28.80;99.90
64501;DHT22;50874;24.150;-110.320;2023-08-12T07:37:22;28.70;99.90
64501;DHT22;50874;24.150;-110.320;2023-08-12T07:39:49;28.80;99.90
64501;DHT22;50874;24.150;-110.320;2023-08-12T07:42:15;28.70;99.90
64501;DHT22;50874;24.150;-110.320;2023-08-12T07:44:42;28.70;99.90
64501;DHT22;50874;24.150;-110.320;2023-08-12T07:47:08;28.70;99.90
64501;DHT22;50874;24.150;-110.320;2023-08-12T07:49:35;28.70;99.90
64501;DHT22;50874;24.150;-110.320;2023-08-12T07:52:02;28.70;99.90
64501;DHT22;50874;24.150;-110.320;2023-08-12T07:54:28;28.70;99.90
64501;DHT22;50874;24.150;-110.320;2023-08-12T07:56:54;28.70;99.90
64501;DHT22;50874;24.150;-110.320;2023-08-12T07:59:21;28.70;99.90
64501;DHT22;50874;24.150;-110.320;2023-08-12T08:01:47;28.60;99.90
64501;DHT22;50874;24.150;-110.320;2023-08-12T08:04:14;28.60;99.90
64501;DHT22;50874;24.150;-110.320;2023-08-12T08:06:40;28.60;99.90
64501;DHT22;50874;24.150;-110.320;2023-08-12T08:09:07;28.60;99.90
64501;DHT22;50874;24.150;-110.320;2023-08-12T08:11:33;28.50;99.90
64501;DHT22;50874;24.150;-110.320;2023-08-12T08:14:00;28.50;99.90
64501;DHT22;50874;24.150;-110.320;2023-08-12T08:16:26;28.50;99.90
64501;DHT22;50874;24.150;-110.320;2023-08-12T08:18:53;28.50;99.90
64501;DHT22;50874;24.150;-110.320;2023-08-12T08:21:19;28.50;99.90
64501;DHT22;50874;24.150;-110.320;2023-08-12T08:23:46;28.50;99.90
64501;DHT22;50874;24.150;-110.320;2023-08-12T08:26:12;28.50;99.90
64501;DHT22;50874;24.150;-110.320;2023-08-12T08:28:41;28.50;99.90
64501;DHT22;50874;24.150;-110.320;2023-08-12T08:31:09;28.50;99.90
64501;DHT22;50874;24.150;-110.320;2023-08-12T08:33:35;28.40;99.90
64501;DHT22;50874;24.150;-110.320;2023-08-12T08:36:02;28.40;99.90
64501;DHT22;50874;24.150;-110.320;2023-08-12T08:38:28;28.40;99.90
64501;DHT22;50874;24.150;-110.320;2023-08-12T08:40:55;28.40;99.90
64501;DHT22;50874;24.150;-110.320;2023-08-12T08:43:24;28.30;99.90
64501;DHT22;50874;24.150;-110.320;2023-08-12T08:45:53;28.30;99.90
64501;DHT22;50874;24.150;-110.320;2023-08-12T08:48:21;28.30;99.90
64501;DHT22;50874;24.150;-110.320;2023-08-12T08:50:48;28.40;99.90
64501;DHT22;50874;24.150;-110.320;2023-08-12T08:53:18;28.30;99.90
64501;DHT22;50874;24.150;-110.320;2023-08-12T08:55:45;28.30;99.90
64501;DHT22;50874;24.150;-110.320;2023-08-12T08:58:11;28.20;99.90
64501;DHT22;50874;24.150;-110.320;2023-08-12T09:00:38;28.20;99.90
64501;DHT22;50874;24.150;-110.320;2023-08-12T09:03:05;28.20;99.90
64501;DHT22;50874;24.150;-110.320;2023-08-12T09:05:34;28.10;99.90
64501;DHT22;50874;24.150;-110.320;2023-08-12T09:08:02;28.20;99.90
64501;DHT22;50874;24.150;-110.320;2023-08-12T09:10:33;28.10;99.90
64501;DHT22;50874;24.150;-110.320;2023-08-12T09:13:01;28.10;99.90
64501;DHT22;50874;24.150;-110.320;2023-08-12T09:15:28;28.10;99.90
64501;DHT22;50874;24.150;-110.320;2023-08-12T09:17:54;28.10;99.90
64501;DHT22;50874;24.150;-110.320;2023-08-12T09:20:21;28.20;99.90
64501;DHT22;50874;24.150;-110.320;2023-08-12T09:22:57;28.20;99.90
64501;DHT22;50874;24.150;-110.320;2023-08-12T09:25:26;28.10;99.90
64501;DHT22;50874;24.150;-110.320;2023-08-12T09:27:54;28.10;99.90
64501;DHT22;50874;24.150;-110.320;2023-08-12T09:30:21;28.10;99.90
64501;DHT22;50874;24.150;-110.320;2023-08-12T09:33:02;28.10;99.90
64501;DHT22;50874;24.150;-110.320;2023-08-12T09:35:40;28.20;99.90
64501;DHT22;50874;24.150;-110.320;2023-08-12T09:38:12;28.20;99.90
64501;DHT22;50874;24.150;-110.320;2023-08-12T09:40:42;28.20;99.90
64501;DHT22;50874;24.150;-110.320;2023-08-12T09:43:09;28.20;99.90
64501;DHT22;50874;24.150;-110.320;2023-08-12T09:45:37;28.20;99.90
64501;DHT22;50874;24.150;-110.320;2023-08-12T09:48:04;28.20;99.90
64501;DHT22;50874;24.150;-110.320;2023-08-12T09:50:30;28.20;99.90
64501;DHT22;50874;24.150;-110.320;2023-08-12T09:52:57;28.20;99.90
64501;DHT22;50874;24.150;-110.320;2023-08-12T09:55:25;28.20;99.90
64501;DHT22;50874;24.150;-110.320;2023-08-12T09:57:53;28.20;99.90
64501;DHT22;50874;24.150;-110.320;2023-08-12T10:00:21;28.20;99.90
64501;DHT22;50874;24.150;-110.320;2023-08-12T10:02:50;28.30;99.90
64501;DHT22;50874;24.150;-110.320;2023-08-12T10:05:27;28.20;99.90
64501;DHT22;50874;24.150;-110.320;2023-08-12T10:07:54;28.20;99.90
64501;DHT22;50874;24.150;-110.320;2023-08-12T10:10:21;28.20;99.90
64501;DHT22;50874;24.150;-110.320;2023-08-12T10:12:51;28.20;99.90
64501;DHT22;50874;24.150;-110.320;2023-08-12T10:15:19;28.20;99.90
64501;DHT22;50874;24.150;-110.320;2023-08-12T10:17:46;28.30;99.90
64501;DHT22;50874;24.150;-110.320;2023-08-12T10:20:16;28.30;99.90
64501;DHT22;50874;24.150;-110.320;2023-08-12T10:22:47;28.20;99.90
64501;DHT22;50874;24.150;-110.320;2023-08-12T10:25:14;28.20;99.90
64501;DHT22;50874;24.150;-110.320;2023-08-12T10:27:41;28.10;99.90
64501;DHT22;50874;24.150;-110.320;2023-08-12T10:30:08;28.10;99.90
64501;DHT22;50874;24.150;-110.320;2023-08-12T10:32:35;28.00;99.90
64501;DHT22;50874;24.150;-110.320;2023-08-12T10:35:02;28.00;99.90
64501;DHT22;50874;24.150;-110.320;2023-08-12T10:37:32;28.00;99.90
64501;DHT22;50874;24.150;-110.320;2023-08-12T10:40:03;28.00;99.90
64501;DHT22;50874;24.150;-110.320;2023-08-12T10:42:49;28.00;99.90
64501;DHT22;50874;24.150;-110.320;2023-08-12T10:45:17;28.00;99.90
64501;DHT22;50874;24.150;-110.320;2023-08-12T10:48:16;28.00;99.90
64501;DHT22;50874;24.150;-110.320;2023-08-12T10:50:45;28.00;99.90
64501;DHT22;50874;24.150;-110.320;2023-08-12T10:53:26;27.90;99.90
64501;DHT22;50874;24.150;-110.320;2023-08-12T10:55:56;27.90;99.90
64501;DHT22;50874;24.150;-110.320;2023-08-12T10:58:28;27.80;99.90
64501;DHT22;50874;24.150;-110.320;2023-08-12T11:00:56;27.80;99.90
64501;DHT22;50874;24.150;-110.320;2023-08-12T11:03:23;27.80;99.90
64501;DHT22;50874;24.150;-110.320;2023-08-12T11:05:50;27.80;99.90
64501;DHT22;50874;24.150;-110.320;2023-08-12T11:08:26;27.70;99.90
64501;DHT22;50874;24.150;-110.320;2023-08-12T11:10:55;27.70;99.90
64501;DHT22;50874;24.150;-110.320;2023-08-12T11:13:27;27.70;99.90
64501;DHT22;50874;24.150;-110.320;2023-08-12T11:16:09;27.70;99.90
64501;DHT22;50874;24.150;-110.320;2023-08-12T11:18:36;27.60;99.90
64501;DHT22;50874;24.150;-110.320;2023-08-12T11:21:02;27.60;99.90
64501;DHT22;50874;24.150;-110.320;2023-08-12T11:23:29;27.60;99.90
64501;DHT22;50874;24.150;-110.320;2023-08-12T11:25:56;27.60;99.90
64501;DHT22;50874;24.150;-110.320;2023-08-12T11:28:24;27.60;99.90
64501;DHT22;50874;24.150;-110.320;2023-08-12T11:30:50;27.50;99.90
64501;DHT22;50874;24.150;-110.320;2023-08-12T11:33:17;27.50;99.90
64501;DHT22;50874;24.150;-110.320;2023-08-12T11:35:44;27.50;99.90
64501;DHT22;50874;24.150;-110.320;2023-08-12T11:38:11;27.50;99.90
64501;DHT22;50874;24.150;-110.320;2023-08-12T11:40:37;27.50;99.90
64501;DHT22;50874;24.150;-110.320;2023-08-12T11:43:04;27.50;99.90
64501;DHT22;50874;24.150;-110.320;2023-08-12T11:45:30;27.50;99.90
64501;DHT22;50874;24.150;-110.320;2023-08-12T11:47:57;27.50;99.90
64501;DHT22;50874;24.150;-110.320;2023-08-12T11:50:27;27.50;99.90
64501;DHT22;50874;24.150;-110.320;2023-08-12T11:52:55;27.50;99.90
64501;DHT22;50874;24.150;-110.320;2023-08-12T11:55:22;27.50;99.90
64501;DHT22;50874;24.150;-110.320;2023-08-12T11:57:50;27.50;99.90
64501;DHT22;50874;24.150;-110.320;2023-08-12T12:00:18;27.50;99.90
64501;DHT22;50874;24.150;-110.320;2023-08-12T12:02:52;27.50;99.90
64501;DHT22;50874;24.150;-110.320;2023-08-12T12:05:29;27.50;99.90
64501;DHT22;50874;24.150;-110.320;2023-08-12T12:08:00;27.50;99.90
64501;DHT22;50874;24.150;-110.320;2023-08-12T12:10:30;27.50;99.90
64501;DHT22;50874;24.150;-110.320;2023-08-12T12:12:56;27.50;99.90
64501;DHT22;50874;24.150;-110.320;2023-08-12T12:15:23;27.50;99.90
64501;DHT22;50874;24.150;-110.320;2023-08-12T12:17:50;27.50;99.90
64501;DHT22;50874;24.150;-110.320;2023-08-12T12:20:18;27.50;99.90
64501;DHT22;50874;24.150;-110.320;2023-08-12T12:22:45;27.50;99.90
64501;DHT22;50874;24.150;-110.320;2023-08-12T12:25:13;27.50;99.90
64501;DHT22;50874;24.150;-110.320;2023-08-12T12:27:41;27.50;99.90
64501;DHT22;50874;24.150;-110.320;2023-08-12T12:30:10;27.60;99.90
64501;DHT22;50874;24.150;-110.320;2023-08-12T12:32:37;27.60;99.90
64501;DHT22;50874;24.150;-110.320;2023-08-12T12:35:04;27.60;99.90
64501;DHT22;50874;24.150;-110.320;2023-08-12T12:37:33;27.60;99.90
64501;DHT22;50874;24.150;-110.320;2023-08-12T12:40:00;27.60;99.90
64501;DHT22;50874;24.150;-110.320;2023-08-12T12:42:26;27.60;99.90
64501;DHT22;50874;24.150;-110.320;2023-08-12T12:44:53;27.60;99.90
64501;DHT22;50874;24.150;-110.320;2023-08-12T12:47:19;27.60;99.90
64501;DHT22;50874;24.150;-110.320;2023-08-12T12:49:46;27.60;99.90
64501;DHT22;50874;24.150;-110.320;2023-08-12T12:52:12;27.60;99.90
64501;DHT22;50874;24.150;-110.320;2023-08-12T12:54:39;27.60;99.90
64501;DHT22;50874;24.150;-110.320;2023-08-12T12:57:05;27.60;99.90
64501;DHT22;50874;24.150;-110.320;2023-08-12T12:59:32;27.60;99.90
64501;DHT22;50874;24.150;-110.320;2023-08-12T13:01:59;27.60;99.90
64501;DHT22;50874;24.150;-110.320;2023-08-12T13:04:25;27.60;99.90
64501;DHT22;50874;24.150;-110.320;2023-08-12T13:06:52;27.70;99.90
64501;DHT22;50874;24.150;-110.320;2023-08-12T13:09:18;27.70;99.90
64501;DHT22;50874;24.150;-110.320;2023-08-12T13:11:44;27.70;99.90
64501;DHT22;50874;24.150;-110.320;2023-08-12T13:14:11;27.70;99.90
64501;DHT22;50874;24.150;-110.320;2023-08-12T13:16:37;27.70;99.90
64501;DHT22;50874;24.150;-110.320;2023-08-12T13:19:04;27.80;99.90
64501;DHT22;50874;24.150;-110.320;2023-08-12T13:21:30;27.90;99.90
64501;DHT22;50874;24.150;-110.320;2023-08-12T13:23:58;27.90;99.90
64501;DHT22;50874;24.150;-110.320;2023-08-12T13:26:24;28.00;99.90
64501;DHT22;50874;24.150;-110.320;2023-08-12T13:28:51;28.20;99.90
64501;DHT22;50874;24.150;-110.320;2023-08-12T13:31:17;28.50;99.90
64501;DHT22;50874;24.150;-110.320;2023-08-12T13:33:44;28.70;99.90
64501;DHT22;50874;24.150;-110.320;2023-08-12T13:36:11;29.00;99.90
64501;DHT22;50874;24.150;-110.320;2023-08-12T13:38:37;29.30;99.90
64501;DHT22;50874;24.150;-110.320;2023-08-12T13:41:04;29.60;99.90
64501;DHT22;50874;24.150;-110.320;2023-08-12T13:43:30;29.90;99.90
64501;DHT22;50874;24.150;-110.320;2023-08-12T13:45:57;30.10;99.90
64501;DHT22;50874;24.150;-110.320;2023-08-12T13:48:23;30.40;99.90
64501;DHT22;50874;24.150;-110.320;2023-08-12T13:50:50;30.80;99.90
64501;DHT22;50874;24.150;-110.320;2023-08-12T13:53:18;31.20;99.90
64501;DHT22;50874;24.150;-110.320;2023-08-12T13:55:45;31.60;99.90
64501;DHT22;50874;24.150;-110.320;2023-08-12T13:58:12;31.90;99.90
64501;DHT22;50874;24.150;-110.320;2023-08-12T14:00:38;32.00;99.90
64501;DHT22;50874;24.150;-110.320;2023-08-12T14:03:05;32.00;99.90
64501;DHT22;50874;24.150;-110.320;2023-08-12T14:05:31;32.00;99.90
64501;DHT22;50874;24.150;-110.320;2023-08-12T14:07:58;32.20;99.90
64501;DHT22;50874;24.150;-110.320;2023-08-12T14:10:25;32.30;99.90
64501;DHT22;50874;24.150;-110.320;2023-08-12T14:12:51;32.40;99.90
64501;DHT22;50874;24.150;-110.320;2023-08-12T14:15:18;32.70;99.90
64501;DHT22;50874;24.150;-110.320;2023-08-12T14:17:44;32.50;99.90
64501;DHT22;50874;24.150;-110.320;2023-08-12T14:20:11;32.50;99.90
64501;DHT22;50874;24.150;-110.320;2023-08-12T14:22:40;32.60;99.90
64501;DHT22;50874;24.150;-110.320;2023-08-12T14:25:07;32.80;99.90
64501;DHT22;50874;24.150;-110.320;2023-08-12T14:27:33;32.90;99.90
64501;DHT22;50874;24.150;-110.320;2023-08-12T14:30:00;32.80;99.90
64501;DHT22;50874;24.150;-110.320;2023-08-12T14:32:26;32.80;99.90
64501;DHT22;50874;24.150;-110.320;2023-08-12T14:34:53;33.20;99.90
64501;DHT22;50874;24.150;-110.320;2023-08-12T14:37:19;33.20;99.90
64501;DHT22;50874;24.150;-110.320;2023-08-12T14:39:46;33.00;99.90
64501;DHT22;50874;24.150;-110.320;2023-08-12T14:42:13;33.00;99.90
64501;DHT22;50874;24.150;-110.320;2023-08-12T14:44:39;33.00;99.90
64501;DHT22;50874;24.150;-110.320;2023-08-12T14:47:06;33.20;99.90
64501;DHT22;50874;24.150;-110.320;2023-08-12T14:49:33;33.70;99.90
64501;DHT22;50874;24.150;-110.320;2023-08-12T14:51:59;33.80;99.90